Time;durP1;ratioP1;P1;durP2;ratioP2;P2;SDS_P1;SDS_P2;PMS_P1;PMS_P2;Temp;Humidity;BMP_temperature;BMP_pressure;BME280_temperature;BME280_humidity;BME280_pressure;Samples;Min_cycle;Max_cycle;Signal;HPM_P1;HPM_P2
2024/04/18 00:01:25;;;;;;;8.27;5.90;;;;;;;8.17;95.09;97606.91;4535018;26;20249;-83
2024/04/18 00:03:31;;;;;;;7.90;6.00;;;;;;;8.18;94.66;97605.97;4567892;25;20248;-83
2024/04/18 00:05:34;;;;;;;7.30;5.95;;;;;;;8.19;94.73;97608.44;4552383;25;20263;-84
2024/04/18 00:07:40;;;;;;;9.10;6.70;;;;;;;8.16;94.44;97603.47;4540623;26;20368;-84
2024/04/18 00:09:49;;;;;;;7.75;6.20;;;;;;;8.16;94.93;97605.22;4563625;25;20368;-84
2024/04/18 00:12:11;;;;;;;9.00;6.53;;;;;;;8.15;94.93;97608.78;4543057;26;20249;-84
2024/04/18 00:14:21;;;;;;;7.07;5.55;;;;;;;8.17;94.54;97612.09;4538043;25;20340;-84
2024/04/18 00:16:26;;;;;;;9.80;7.10;;;;;;;8.16;93.96;97611.28;4531737;26;20264;-84
2024/04/18 00:18:49;;;;;;;8.70;5.88;;;;;;;8.18;94.55;97613.75;4500025;26;20261;-84
2024/04/18 00:21:04;;;;;;;8.40;6.13;;;;;;;8.18;94.31;97614.59;4538944;26;20244;-83
2024/04/18 00:23:28;;;;;;;9.90;6.57;;;;;;;8.20;94.28;97617.06;4552500;26;20280;-83
2024/04/18 00:25:53;;;;;;;12.30;7.75;;;;;;;8.20;93.83;97615.31;4526945;26;20634;-84
2024/04/18 00:28:00;;;;;;;9.30;7.55;;;;;;;8.21;94.33;97618.72;4534894;26;20798;-84
2024/04/18 00:30:18;;;;;;;8.15;6.00;;;;;;;8.21;94.85;97616.97;4536358;26;20241;-84
2024/04/18 00:32:25;;;;;;;8.77;6.80;;;;;;;8.22;94.82;97620.41;4523158;26;20295;-84
2024/04/18 00:34:51;;;;;;;9.35;6.00;;;;;;;8.20;95.39;97617.91;4537227;26;21484;-83
2024/04/18 00:37:09;;;;;;;8.73;6.35;;;;;;;8.19;95.61;97618.81;4539007;26;20267;-84
2024/04/18 00:39:33;;;;;;;8.73;6.20;;;;;;;8.17;95.53;97612.91;4559324;26;20336;-84
2024/04/18 00:41:36;;;;;;;8.85;6.35;;;;;;;8.19;95.45;97616.22;4538026;26;20308;-83
2024/04/18 00:43:45;;;;;;;11.05;8.30;;;;;;;8.18;94.31;97609.38;4523629;26;20248;-84
2024/04/18 00:46:06;;;;;;;8.80;7.00;;;;;;;8.19;94.64;97610.22;4564441;26;20745;-84
2024/04/18 00:48:32;;;;;;;7.95;6.07;;;;;;;8.21;94.72;97609.19;4541010;26;20573;-84
2024/04/18 00:50:35;;;;;;;9.18;6.18;;;;;;;8.19;95.06;97608.44;4530350;26;20261;-84
2024/04/18 00:52:56;;;;;;;11.38;8.60;;;;;;;8.20;94.45;97610.09;4569354;25;20259;-84
2024/04/18 00:55:03;;;;;;;10.47;8.60;;;;;;;8.24;93.84;97614.19;4534287;26;20626;-83
2024/04/18 00:57:11;;;;;;;11.43;8.40;;;;;;;8.23;93.41;97604.72;4533453;26;21159;-84
2024/04/18 00:59:17;;;;;;;10.98;8.25;;;;;;;8.22;92.76;97610.81;4537985;26;20724;-84
2024/04/18 01:01:44;;;;;;;12.70;8.35;;;;;;;8.23;92.91;97609.91;4543077;26;20291;-82
2024/04/18 01:04:07;;;;;;;13.00;8.27;;;;;;;8.23;92.43;97612.50;4531496;26;20352;-85
2024/04/18 01:06:19;;;;;;;9.07;7.85;;;;;;;8.23;91.50;97614.28;4538041;26;20248;-84
2024/04/18 01:08:41;;;;;;;11.75;8.40;;;;;;;8.21;91.16;97614.38;4574850;25;20301;-83
2024/04/18 01:11:07;;;;;;;10.43;7.85;;;;;;;8.20;92.25;97604.91;4501549;26;20701;-85
2024/04/18 01:13:09;;;;;;;9.43;7.65;;;;;;;8.22;91.62;97608.22;4536066;26;20257;-84
2024/04/18 01:15:44;;;;;;;10.67;7.83;;;;;;;8.22;90.86;97604.81;4543311;26;20261;-84
2024/04/18 01:17:47;;;;;;;10.05;8.00;;;;;;;8.20;91.06;97599.72;4503518;26;20619;-84
2024/04/18 01:19:53;;;;;;;10.63;7.93;;;;;;;8.21;90.88;97609.19;4536459;26;20716;-84
2024/04/18 01:21:57;;;;;;;10.55;7.75;;;;;;;8.22;91.66;97612.59;4539683;26;20621;-84
2024/04/18 01:24:09;;;;;;;10.00;7.07;;;;;;;8.22;91.57;97610.81;4530796;26;20753;-84
2024/04/18 01:26:18;;;;;;;11.82;7.45;;;;;;;8.22;91.13;97610.00;4534518;26;20927;-83
2024/04/18 01:28:23;;;;;;;9.95;7.57;;;;;;;8.21;91.35;97609.19;4558891;25;20246;-83
2024/04/18 01:30:37;;;;;;;9.48;7.28;;;;;;;8.21;91.10;97609.19;4534020;26;20283;-84
2024/04/18 01:32:48;;;;;;;9.20;7.25;;;;;;;8.21;91.24;97614.38;4525712;26;20233;-84
2024/04/18 01:34:51;;;;;;;8.55;6.95;;;;;;;8.22;91.24;97610.00;4537486;26;20285;-83
2024/04/18 01:36:56;;;;;;;9.40;6.90;;;;;;;8.23;90.68;97617.69;4540866;26;20248;-84
2024/04/18 01:39:02;;;;;;;8.82;6.95;;;;;;;8.22;91.77;97618.63;4559200;26;20632;-84
2024/04/18 01:41:08;;;;;;;9.27;6.97;;;;;;;8.22;91.33;97626.41;4534759;26;20280;-83
2024/04/18 01:43:32;;;;;;;8.93;6.70;;;;;;;8.21;91.16;97629.09;4536621;26;20584;-83
2024/04/18 01:45:56;;;;;;;10.05;6.80;;;;;;;8.22;91.01;97623.81;4542478;26;20270;-84
2024/04/18 01:48:00;;;;;;;8.85;6.70;;;;;;;8.20;91.42;97620.50;4534523;26;20250;-83
2024/04/18 01:50:17;;;;;;;8.90;5.85;;;;;;;8.24;90.69;97627.16;4531942;26;20254;-83
2024/04/18 01:52:21;;;;;;;8.00;5.85;;;;;;;8.22;91.35;97621.22;4536660;26;20271;-84
2024/04/18 01:54:26;;;;;;;7.70;5.43;;;;;;;8.18;90.43;97621.56;4509194;26;20246;-84
2024/04/18 01:56:29;;;;;;;7.55;5.43;;;;;;;8.18;90.55;97630.16;4566866;25;20316;-83
2024/04/18 01:59:02;;;;;;;6.10;5.25;;;;;;;8.16;89.83;97621.66;4512670;26;20571;-84
2024/04/18 02:01:05;;;;;;;5.95;5.10;;;;;;;8.11;89.37;97618.50;4533017;26;20237;-84
2024/04/18 02:03:08;;;;;;;5.63;4.50;;;;;;;8.11;89.25;97628.03;4528599;26;20738;-85
2024/04/18 02:05:20;;;;;;;7.38;4.88;;;;;;;8.07;89.68;97627.41;4531707;26;20665;-83
2024/04/18 02:07:43;;;;;;;5.35;4.43;;;;;;;8.07;89.43;97624.81;4532244;26;20320;-84
2024/04/18 02:09:49;;;;;;;6.80;5.05;;;;;;;8.05;89.30;97629.25;4534155;26;20803;-84
2024/04/18 02:12:03;;;;;;;6.65;5.28;;;;;;;8.06;89.61;97638.72;4528488;26;20724;-83
2024/04/18 02:14:29;;;;;;;5.15;4.22;;;;;;;8.07;89.49;97629.16;4535887;25;20238;-84
2024/04/18 02:16:33;;;;;;;5.20;4.40;;;;;;;8.04;89.70;97630.22;4536276;26;20271;-84
2024/04/18 02:18:57;;;;;;;5.53;4.30;;;;;;;8.00;89.61;97633.94;4542483;26;20335;-84
2024/04/18 02:21:01;;;;;;;5.60;4.20;;;;;;;7.99;89.92;97629.66;4539473;26;20234;-83
2024/04/18 02:23:06;;;;;;;4.80;4.30;;;;;;;7.97;89.84;97634.13;4508101;26;20277;-83
2024/04/18 02:25:30;;;;;;;6.03;4.32;;;;;;;7.95;89.97;97634.34;4540863;26;20236;-84
2024/04/18 02:27:36;;;;;;;4.60;4.10;;;;;;;7.96;90.21;97638.59;4562838;26;20284;-84
2024/04/18 02:30:00;;;;;;;5.57;3.90;;;;;;;7.95;90.29;97642.13;4534432;26;20237;-83
2024/04/18 02:32:14;;;;;;;5.82;4.50;;;;;;;7.93;89.80;97638.81;4542606;26;20257;-84
2024/04/18 02:34:17;;;;;;;5.78;4.10;;;;;;;7.91;89.55;97640.66;4535404;26;20332;-84
2024/04/18 02:36:28;;;;;;;5.13;4.45;;;;;;;7.90;89.81;97631.22;4539706;26;20283;-84
2024/04/18 02:38:47;;;;;;;4.72;4.10;;;;;;;7.94;90.46;97637.84;4498531;26;20249;-84
2024/04/18 02:40:54;;;;;;;5.75;4.05;;;;;;;7.94;90.07;97640.44;4553654;26;20587;-83
2024/04/18 02:43:16;;;;;;;6.50;4.40;;;;;;;7.94;90.63;97637.84;4540712;26;20237;-83
2024/04/18 02:45:25;;;;;;;5.07;4.18;;;;;;;7.95;90.74;97631.75;4527574;26;20249;-84
2024/04/18 02:47:48;;;;;;;6.50;4.80;;;;;;;7.90;90.22;97628.63;4535478;26;20267;-83
2024/04/18 02:50:13;;;;;;;6.85;5.13;;;;;;;7.86;90.93;97632.34;4568455;25;20334;-83
2024/04/18 02:52:16;;;;;;;7.70;4.55;;;;;;;7.88;90.79;97641.69;4528523;26;20249;-83
2024/04/18 02:54:21;;;;;;;6.50;4.75;;;;;;;7.87;90.91;97634.84;4530731;26;20256;-83
2024/04/18 02:56:25;;;;;;;5.63;4.60;;;;;;;7.87;91.04;97634.00;4536343;26;20237;-83
2024/04/18 02:58:48;;;;;;;5.72;4.65;;;;;;;7.87;90.87;97628.81;4534488;26;20424;-83
2024/04/18 03:00:54;;;;;;;6.13;4.20;;;;;;;7.89;90.53;97642.53;4524025;26;20242;-83
2024/04/18 03:03:16;;;;;;;4.95;4.20;;;;;;;7.89;90.49;97637.34;4559966;26;20277;-84
2024/04/18 03:05:37;;;;;;;6.15;4.70;;;;;;;7.88;90.69;97640.84;4529500;26;20309;-83
2024/04/18 03:07:43;;;;;;;5.70;4.47;;;;;;;7.88;90.61;97635.66;4505162;26;20275;-83
2024/04/18 03:09:46;;;;;;;6.70;4.13;;;;;;;7.88;90.25;97639.09;4531435;26;20362;-83
2024/04/18 03:12:04;;;;;;;5.10;4.60;;;;;;;7.88;90.64;97635.66;4527908;26;20790;-83
2024/04/18 03:14:13;;;;;;;5.57;4.22;;;;;;;7.88;90.85;97635.66;4534706;26;20279;-84
2024/04/18 03:16:22;;;;;;;5.15;4.00;;;;;;;7.89;90.63;97638.16;4556365;25;20244;-84
2024/04/18 03:18:24;;;;;;;5.75;4.78;;;;;;;7.89;90.49;97635.56;4522068;26;20276;-83
2024/04/18 03:20:54;;;;;;;5.45;4.07;;;;;;;7.87;90.33;97640.03;4563548;26;20237;-83
2024/04/18 03:23:15;;;;;;;7.28;4.80;;;;;;;7.89;91.01;97645.13;4539358;26;20361;-83
2024/04/18 03:25:39;;;;;;;4.95;4.28;;;;;;;7.87;90.82;97636.59;4551699;26;20279;-83
2024/04/18 03:27:42;;;;;;;7.15;4.90;;;;;;;7.87;90.59;97644.41;4571293;25;20328;-83
2024/04/18 03:29:48;;;;;;;7.18;4.53;;;;;;;7.87;90.47;97642.63;4497885;26;20234;-84
2024/04/18 03:32:10;;;;;;;6.10;5.18;;;;;;;7.91;90.78;97643.25;4536888;26;20285;-83
2024/04/18 03:34:21;;;;;;;5.40;4.55;;;;;;;7.89;91.09;97643.34;4494414;26;20829;-83
2024/04/18 03:36:27;;;;;;;7.80;4.70;;;;;;;7.88;91.17;97644.28;4503611;26;20252;-83
2024/04/18 03:38:33;;;;;;;6.70;5.05;;;;;;;7.88;91.42;97646.91;4534023;26;20255;-84
2024/04/18 03:40:39;;;;;;;5.85;4.65;;;;;;;7.91;91.08;97651.03;4527504;26;20225;-83
2024/04/18 03:42:42;;;;;;;5.95;5.10;;;;;;;7.91;90.99;97656.22;4512924;26;20362;-83
2024/04/18 03:44:48;;;;;;;8.05;5.07;;;;;;;7.91;91.26;97646.69;4535077;26;20251;-83
2024/04/18 03:46:50;;;;;;;6.03;4.95;;;;;;;7.93;91.31;97652.59;4534381;26;20276;-83
2024/04/18 03:49:13;;;;;;;7.28;4.53;;;;;;;7.92;90.87;97657.91;4500684;26;20331;-83
2024/04/18 03:51:16;;;;;;;5.05;4.22;;;;;;;7.91;90.92;97651.88;4536023;26;20257;-83
2024/04/18 03:54:00;;;;;;;6.10;5.18;;;;;;;7.91;90.67;97661.41;4560868;26;20278;-84
2024/04/18 03:56:23;;;;;;;7.75;5.00;;;;;;;7.91;91.19;97658.81;4540103;26;20328;-83
2024/04/18 03:58:28;;;;;;;7.68;5.50;;;;;;;7.91;91.17;97669.19;4538539;26;20350;-83
2024/04/18 04:00:31;;;;;;;5.50;4.18;;;;;;;7.91;90.85;97662.28;4525902;26;20709;-83
2024/04/18 04:02:36;;;;;;;5.45;4.75;;;;;;;7.90;91.03;97665.78;4540724;26;20272;-84
2024/04/18 04:04:42;;;;;;;6.40;5.28;;;;;;;7.90;91.40;97670.97;4505245;26;20254;-83
2024/04/18 04:06:47;;;;;;;6.18;4.47;;;;;;;7.91;91.35;97664.00;4542315;26;20239;-83
2024/04/18 04:08:51;;;;;;;6.65;5.25;;;;;;;7.90;91.04;97677.94;4523922;26;20275;-83
2024/04/18 04:10:57;;;;;;;5.78;4.78;;;;;;;7.89;90.80;97681.47;4527170;26;20791;-83
2024/04/18 04:13:00;;;;;;;7.47;5.10;;;;;;;7.90;91.10;97680.53;4529166;26;20287;-84
2024/04/18 04:15:19;;;;;;;5.32;4.80;;;;;;;7.89;90.65;97682.28;4529849;26;20317;-83
2024/04/18 04:17:36;;;;;;;6.22;4.90;;;;;;;7.86;90.22;97679.06;4549138;26;20283;-84
2024/04/18 04:19:48;;;;;;;7.05;4.53;;;;;;;7.83;89.51;97682.66;4538826;26;20253;-83
2024/04/18 04:21:51;;;;;;;7.00;4.88;;;;;;;7.79;89.54;97683.00;4536846;26;20300;-83
2024/04/18 04:23:57;;;;;;;5.40;4.05;;;;;;;7.80;90.08;97690.66;4545401;26;20343;-83
2024/04/18 04:26:19;;;;;;;7.32;5.30;;;;;;;7.79;90.03;97694.19;4541833;26;20276;-83
2024/04/18 04:28:25;;;;;;;5.78;4.70;;;;;;;7.80;90.37;97700.22;4540586;26;20280;-84
2024/04/18 04:30:28;;;;;;;5.90;4.45;;;;;;;7.79;90.11;97704.59;4537969;26;20248;-84
2024/04/18 04:32:34;;;;;;;6.70;5.03;;;;;;;7.78;90.33;97704.69;4547488;26;21042;-84
2024/04/18 04:35:00;;;;;;;6.40;5.38;;;;;;;7.79;90.28;97711.53;4536180;26;20361;-85
2024/04/18 04:37:07;;;;;;;5.60;4.78;;;;;;;7.79;90.09;97709.78;4531612;26;20233;-84
2024/04/18 04:39:10;;;;;;;7.03;4.82;;;;;;;7.81;89.87;97707.09;4530665;26;20694;-82
2024/04/18 04:41:21;;;;;;;5.80;5.22;;;;;;;7.81;90.26;97712.28;4537056;26;20241;-83
2024/04/18 04:43:25;;;;;;;5.63;4.85;;;;;;;7.82;90.24;97722.56;4528517;26;20249;-83
2024/04/18 04:45:31;;;;;;;6.50;5.05;;;;;;;7.81;90.36;97720.88;4532624;26;20257;-83
2024/04/18 04:47:40;;;;;;;6.30;4.97;;;;;;;7.81;90.26;97723.47;4543337;26;20283;-83
2024/04/18 04:50:06;;;;;;;5.07;4.53;;;;;;;7.84;90.16;97730.25;4520127;26;20250;-83
2024/04/18 04:52:12;;;;;;;6.65;4.82;;;;;;;7.83;90.41;97728.56;4539051;26;20271;-83
2024/04/18 04:54:20;;;;;;;6.47;5.43;;;;;;;7.84;90.25;97732.84;4549682;25;20239;-83
2024/04/18 04:56:22;;;;;;;8.07;5.03;;;;;;;7.83;89.95;97739.78;4542694;26;20268;-83
2024/04/18 04:58:48;;;;;;;8.98;5.10;;;;;;;7.82;90.62;97735.53;4545262;26;20245;-82
2024/04/18 05:00:53;;;;;;;7.15;5.50;;;;;;;7.82;90.21;97739.88;4536350;26;20283;-81
2024/04/18 05:03:15;;;;;;;7.57;5.80;;;;;;;7.84;90.41;97743.22;4538682;26;20243;-81
2024/04/18 05:05:31;;;;;;;6.70;5.60;;;;;;;7.85;89.86;97740.53;4517996;26;20243;-84
2024/04/18 05:07:42;;;;;;;9.02;5.93;;;;;;;7.86;90.13;97749.16;4524624;26;20338;-84
2024/04/18 05:10:04;;;;;;;7.45;6.05;;;;;;;7.88;89.74;97760.25;4531605;26;20265;-81
2024/04/18 05:12:12;;;;;;;6.60;5.50;;;;;;;7.87;89.67;97759.44;4527517;26;20251;-81
2024/04/18 05:14:17;;;;;;;10.80;6.70;;;;;;;7.89;89.64;97756.75;4538916;26;20244;-82
2024/04/18 05:16:29;;;;;;;7.80;6.32;;;;;;;7.88;89.84;97755.91;4540486;26;20662;-82
2024/04/18 05:18:47;;;;;;;6.85;5.82;;;;;;;7.90;90.48;97761.00;4537927;26;20245;-83
2024/04/18 05:20:56;;;;;;;9.65;6.65;;;;;;;7.88;89.97;97763.72;4562884;26;20387;-83
2024/04/18 05:22:59;;;;;;;7.53;6.10;;;;;;;7.87;89.89;97769.81;4556554;25;20306;-83
2024/04/18 05:25:06;;;;;;;9.27;6.70;;;;;;;7.89;90.09;97767.94;4543591;26;20259;-82
2024/04/18 05:27:13;;;;;;;9.32;6.90;;;;;;;7.87;89.36;97766.41;4568951;25;20332;-83
2024/04/18 05:31:43;;;;;;;9.77;7.38;;;;;;;7.89;89.60;97773.13;4531935;26;20976;-83
2024/04/18 05:33:49;;;;;;;8.85;7.20;;;;;;;7.91;89.42;97778.22;4539880;26;20334;-83
2024/04/18 05:35:55;;;;;;;9.45;7.47;;;;;;;7.91;89.33;97773.03;4569073;25;20239;-83
2024/04/18 05:38:00;;;;;;;8.90;7.00;;;;;;;7.91;89.99;97776.50;4520600;26;20727;-83
2024/04/18 05:40:06;;;;;;;13.90;7.95;;;;;;;7.95;89.65;97782.31;4533794;26;20325;-82
2024/04/18 05:42:09;;;;;;;8.52;7.63;;;;;;;7.96;90.20;97785.63;4531533;26;20242;-83
2024/04/18 05:44:16;;;;;;;10.27;7.93;;;;;;;7.97;90.06;97792.50;4540719;26;20285;-83
2024/04/18 05:46:19;;;;;;;8.48;7.57;;;;;;;8.00;88.83;97794.09;4542114;26;20591;-83
2024/04/18 05:48:25;;;;;;;13.07;8.80;;;;;;;7.96;88.72;97794.38;4502547;26;20330;-83
2024/04/18 05:50:27;;;;;;;8.60;7.25;;;;;;;7.96;88.71;97789.19;4532855;26;20272;-83
2024/04/18 05:52:36;;;;;;;10.05;7.22;;;;;;;7.96;88.38;97795.19;4534741;26;20247;-83
2024/04/18 05:54:57;;;;;;;10.48;8.05;;;;;;;7.98;87.65;97804.56;4533058;26;20247;-83
2024/04/18 05:57:16;;;;;;;8.90;7.65;;;;;;;8.00;88.39;97804.47;4516678;26;20622;-82
2024/04/18 05:59:29;;;;;;;9.55;7.82;;;;;;;8.03;88.29;97802.50;4528761;26;20247;-82
2024/04/18 06:01:35;;;;;;;9.52;8.43;;;;;;;8.08;88.79;97823.81;4534601;26;20261;-83
2024/04/18 06:03:40;;;;;;;9.60;7.45;;;;;;;8.13;88.80;97813.19;4547660;26;20719;-83
2024/04/18 06:05:43;;;;;;;8.23;6.75;;;;;;;8.15;88.13;97814.75;4539890;26;20308;-83
2024/04/18 06:07:55;;;;;;;8.65;7.18;;;;;;;8.20;88.24;97817.88;4544442;26;20288;-83
2024/04/18 06:10:00;;;;;;;9.20;8.20;;;;;;;8.25;89.19;97828.00;4573196;25;20253;-83
2024/04/18 06:12:07;;;;;;;9.48;7.30;;;;;;;8.30;89.22;97831.97;4538780;26;20249;-83
2024/04/18 06:14:12;;;;;;;9.05;7.82;;;;;;;8.33;88.30;97825.72;4539127;26;20268;-83
2024/04/18 06:16:18;;;;;;;10.38;7.88;;;;;;;8.36;88.37;97829.00;4550681;26;20252;-83
2024/04/18 06:18:29;;;;;;;9.07;7.07;;;;;;;8.43;88.18;97832.84;4538532;26;20240;-83
2024/04/18 06:20:34;;;;;;;11.30;8.32;;;;;;;8.48;88.19;97833.41;4550404;26;20286;-83
2024/04/18 06:22:37;;;;;;;8.80;7.22;;;;;;;8.52;88.05;97835.72;4522943;26;20248;-83
2024/04/18 06:25:03;;;;;;;10.90;8.25;;;;;;;8.57;88.11;97846.63;4540937;26;20320;-83
2024/04/18 06:27:09;;;;;;;7.75;6.65;;;;;;;8.64;87.83;97845.28;4503118;26;20242;-83
2024/04/18 06:29:15;;;;;;;8.95;7.93;;;;;;;8.77;88.27;97853.16;4544234;26;20280;-83
2024/04/18 06:31:22;;;;;;;10.93;8.70;;;;;;;8.94;87.29;97862.34;4527110;26;20261;-83
2024/04/18 06:33:29;;;;;;;9.82;8.77;;;;;;;9.08;86.86;97856.22;4524379;26;20233;-83
2024/04/18 06:35:33;;;;;;;10.77;8.90;;;;;;;9.18;86.48;97863.31;4532522;26;20237;-83
2024/04/18 06:37:38;;;;;;;9.88;8.02;;;;;;;9.24;86.00;97869.88;4515907;26;20243;-83
2024/04/18 06:39:45;;;;;;;10.25;8.85;;;;;;;9.23;84.93;97863.84;4542569;26;20288;-83
2024/04/18 06:41:54;;;;;;;11.07;9.15;;;;;;;9.21;84.73;97873.50;4544198;26;20700;-83
2024/04/18 06:44:00;;;;;;;10.90;9.80;;;;;;;9.19;84.81;97871.97;4530384;26;20681;-83
2024/04/18 06:46:03;;;;;;;11.18;9.98;;;;;;;9.14;85.70;97872.28;4528715;26;21164;-82
2024/04/18 06:48:10;;;;;;;9.32;8.27;;;;;;;9.09;85.46;97876.91;4535708;26;20255;-82
2024/04/18 06:50:16;;;;;;;11.43;8.93;;;;;;;9.08;85.93;97870.06;4544996;26;20260;-82
2024/04/18 06:52:22;;;;;;;10.38;9.25;;;;;;;9.04;86.60;97871.19;4519293;26;20783;-82
2024/04/18 06:54:26;;;;;;;9.57;7.37;;;;;;;9.01;85.65;97867.97;4539550;26;20271;-82
2024/04/18 06:56:32;;;;;;;9.32;7.63;;;;;;;9.00;85.80;97885.31;4541830;26;21155;-82
2024/04/18 06:58:40;;;;;;;10.30;7.65;;;;;;;8.98;85.53;97879.41;4550945;26;20263;-82
2024/04/18 07:00:47;;;;;;;9.20;7.72;;;;;;;9.00;86.02;97887.09;4548299;26;20569;-82
2024/04/18 07:02:51;;;;;;;10.10;8.00;;;;;;;9.02;85.41;97880.03;4546838;26;20332;-82
2024/04/18 07:05:16;;;;;;;8.68;7.53;;;;;;;9.00;84.97;97884.50;4532995;26;20326;-82
2024/04/18 07:07:25;;;;;;;9.13;7.63;;;;;;;9.00;85.14;97880.13;4512607;26;20335;-82
2024/04/18 07:09:31;;;;;;;10.88;9.43;;;;;;;9.04;85.26;97886.81;4551446;26;20241;-82
2024/04/18 07:11:56;;;;;;;10.50;7.57;;;;;;;9.02;85.78;97891.28;4533170;26;20873;-82
2024/04/18 07:14:07;;;;;;;8.80;7.63;;;;;;;9.03;85.46;97886.91;4539620;26;20243;-82
2024/04/18 07:16:13;;;;;;;9.18;7.53;;;;;;;9.04;85.46;97894.59;4546384;26;20723;-82
2024/04/18 07:18:28;;;;;;;8.30;7.25;;;;;;;9.08;84.91;97896.09;4547142;26;20658;-82
2024/04/18 07:20:33;;;;;;;11.50;7.70;;;;;;;9.09;85.80;97897.72;4544072;26;20276;-82
2024/04/18 07:22:42;;;;;;;12.90;8.25;;;;;;;9.12;85.08;97907.13;4523834;26;20257;-82
2024/04/18 07:25:06;;;;;;;9.07;7.78;;;;;;;9.12;85.95;97907.13;4542029;26;20342;-82
2024/04/18 07:27:11;;;;;;;8.88;7.55;;;;;;;9.11;85.59;97906.28;4535491;26;20232;-81
2024/04/18 07:29:20;;;;;;;7.93;6.60;;;;;;;9.12;85.34;97912.31;4506666;26;20242;-82
2024/04/18 07:31:26;;;;;;;8.90;7.00;;;;;;;9.10;85.37;97904.59;4541522;26;20280;-81
2024/04/18 07:33:51;;;;;;;8.60;7.15;;;;;;;9.12;84.88;97907.94;4523007;26;20295;-83
2024/04/18 07:35:57;;;;;;;8.70;7.22;;;;;;;9.16;84.64;97919.00;4534952;26;20263;-83
2024/04/18 07:38:03;;;;;;;7.95;7.05;;;;;;;9.17;84.85;97916.28;4509431;26;20243;-82
2024/04/18 07:40:11;;;;;;;13.75;10.30;;;;;;;9.22;85.36;97922.03;4537843;26;20330;-82
2024/04/18 07:42:17;;;;;;;9.75;8.02;;;;;;;9.28;86.07;97926.00;4527851;26;20247;-82
2024/04/18 07:44:26;;;;;;;8.55;7.05;;;;;;;9.29;84.77;97923.28;4530408;26;20341;-82
2024/04/18 07:46:33;;;;;;;7.70;6.60;;;;;;;9.34;83.87;97923.81;4538659;26;20850;-82
2024/04/18 07:48:39;;;;;;;10.35;7.20;;;;;;;9.38;84.29;97935.66;4527274;26;20241;-82
2024/04/18 07:50:46;;;;;;;7.60;6.82;;;;;;;9.45;84.11;97942.16;4544748;26;20239;-82
2024/04/18 07:52:52;;;;;;;8.55;7.65;;;;;;;9.53;84.01;97951.13;4544651;26;20804;-82
2024/04/18 07:55:14;;;;;;;9.25;7.32;;;;;;;9.63;85.53;97946.13;4543455;26;20407;-82
2024/04/18 07:57:20;;;;;;;13.80;8.50;;;;;;;9.67;85.19;97952.81;4539271;26;20275;-82
2024/04/18 07:59:29;;;;;;;10.30;7.65;;;;;;;9.72;84.06;97955.94;4535868;26;20241;-82
2024/04/18 08:01:36;;;;;;;10.40;7.55;;;;;;;9.82;84.52;97949.16;4538703;26;20336;-82
2024/04/18 08:03:42;;;;;;;12.10;9.07;;;;;;;9.94;84.18;97960.47;4535450;26;20279;-82
2024/04/18 08:06:07;;;;;;;13.27;9.50;;;;;;;10.01;83.36;97966.94;4511845;26;20591;-82
2024/04/18 08:08:11;;;;;;;10.73;8.95;;;;;;;9.99;83.45;97960.97;4540723;26;20566;-82
2024/04/18 08:10:23;;;;;;;10.90;8.70;;;;;;;10.12;83.22;97961.81;4537754;26;20706;-83
2024/04/18 08:12:40;;;;;;;11.00;8.97;;;;;;;10.24;82.22;97963.59;4505499;26;20288;-82
2024/04/18 08:14:55;;;;;;;10.67;8.80;;;;;;;10.40;82.11;97962.41;4531877;26;20615;-82
2024/04/18 08:17:11;;;;;;;11.20;9.10;;;;;;;10.58;81.63;97981.13;4560391;26;20625;-82
2024/04/18 08:19:17;;;;;;;12.70;9.60;;;;;;;10.76;81.17;97979.84;4524137;26;20279;-82
2024/04/18 08:21:22;;;;;;;11.43;9.33;;;;;;;10.80;81.08;97976.91;4526090;26;21623;-82
2024/04/18 08:23:28;;;;;;;13.27;9.85;;;;;;;10.72;80.75;97979.25;4538144;26;20713;-82
2024/04/18 08:25:35;;;;;;;13.57;10.18;;;;;;;10.91;81.57;97987.41;4530466;26;20264;-82
2024/04/18 08:27:40;;;;;;;12.47;9.33;;;;;;;11.45;80.13;97999.91;4505753;26;20238;-82
2024/04/18 08:29:46;;;;;;;11.40;10.20;;;;;;;11.77;79.56;98007.94;4532898;26;20618;-80
2024/04/18 08:31:53;;;;;;;11.20;9.63;;;;;;;11.89;78.53;98009.63;4534150;26;20302;-81
2024/04/18 08:33:59;;;;;;;12.60;9.80;;;;;;;11.59;78.63;98000.63;4552358;26;20629;-80
2024/04/18 08:36:17;;;;;;;18.40;13.37;;;;;;;11.23;79.18;97997.22;4543679;26;20673;-81
2024/04/18 08:38:23;;;;;;;12.37;10.20;;;;;;;11.00;78.77;97990.19;4579513;25;20741;-81
2024/04/18 08:40:27;;;;;;;11.93;9.47;;;;;;;10.82;78.77;97991.53;4536872;26;20570;-82
2024/04/18 08:42:33;;;;;;;14.20;9.60;;;;;;;10.62;79.01;97993.03;4509421;26;20559;-81
2024/04/18 08:44:36;;;;;;;11.17;9.27;;;;;;;10.51;79.57;97987.75;4496927;26;20646;-81
2024/04/18 08:46:42;;;;;;;11.18;9.00;;;;;;;10.48;79.46;97994.00;4546485;26;21117;-81
2024/04/18 08:48:50;;;;;;;10.50;8.90;;;;;;;10.49;79.85;97989.59;4510405;26;20290;-81
2024/04/18 08:50:56;;;;;;;11.93;9.93;;;;;;;10.50;79.92;97996.50;4547653;26;20627;-81
2024/04/18 08:53:03;;;;;;;11.47;9.57;;;;;;;10.45;79.77;97993.38;4555844;26;21162;-81
2024/04/18 08:55:09;;;;;;;11.30;8.77;;;;;;;10.40;78.55;97993.69;4510399;26;20623;-81
2024/04/18 08:57:15;;;;;;;12.00;9.23;;;;;;;10.41;80.44;97997.13;4534645;26;20574;-81
2024/04/18 08:59:23;;;;;;;9.88;8.75;;;;;;;10.42;80.93;97997.03;4519809;26;20612;-81
2024/04/18 09:01:29;;;;;;;10.10;8.80;;;;;;;10.46;81.20;97992.41;4539801;26;20340;-81
2024/04/18 09:03:34;;;;;;;13.70;8.23;;;;;;;10.45;79.47;97996.81;4507897;26;20681;-82
2024/04/18 09:05:44;;;;;;;11.63;8.67;;;;;;;10.49;83.23;97998.28;4542197;26;20562;-81
2024/04/18 09:07:47;;;;;;;11.20;8.80;;;;;;;10.52;83.68;98002.44;4542438;26;20607;-81
2024/04/18 09:09:54;;;;;;;10.47;8.17;;;;;;;10.78;84.74;98017.09;4570564;26;20601;-81
2024/04/18 09:12:02;;;;;;;11.87;9.30;;;;;;;11.43;86.12;98017.50;4539415;26;20570;-81
2024/04/18 09:14:08;;;;;;;11.23;9.07;;;;;;;12.00;81.29;98034.97;4535744;26;20557;-82
2024/04/18 09:16:15;;;;;;;10.43;8.93;;;;;;;12.49;81.00;98025.88;4521882;26;21135;-81
2024/04/18 09:18:18;;;;;;;11.43;8.32;;;;;;;12.93;80.92;98038.06;4509437;26;20532;-82
2024/04/18 09:20:23;;;;;;;7.10;5.97;;;;;;;13.01;71.52;98026.97;4538871;26;20275;-81
2024/04/18 09:22:30;;;;;;;9.27;6.73;;;;;;;12.89;69.95;98033.19;4539393;26;21170;-82
2024/04/18 09:24:42;;;;;;;7.87;7.00;;;;;;;12.75;70.59;98017.69;4512330;26;21160;-81
2024/04/18 09:26:46;;;;;;;10.07;6.90;;;;;;;12.51;73.50;98010.88;4536061;26;20673;-81
2024/04/18 09:28:52;;;;;;;8.37;6.60;;;;;;;12.30;74.55;98026.47;4515673;26;21271;-81
2024/04/18 09:30:58;;;;;;;8.13;6.80;;;;;;;12.09;73.76;98024.63;4513790;26;20559;-81
2024/04/18 09:33:07;;;;;;;8.83;5.80;;;;;;;11.87;72.50;98014.13;4537156;26;20615;-82
2024/04/18 09:35:13;;;;;;;7.73;5.40;;;;;;;11.66;71.89;98011.44;4502985;26;20608;-82
2024/04/18 09:37:19;;;;;;;8.20;5.40;;;;;;;11.60;74.23;98017.94;4533249;26;20555;-81
2024/04/18 09:39:26;;;;;;;7.60;5.40;;;;;;;11.59;73.28;98016.28;4537020;26;20547;-81
2024/04/18 09:41:34;;;;;;;6.67;5.50;;;;;;;11.54;72.68;98026.22;4501308;26;20617;-81
2024/04/18 09:43:44;;;;;;;7.70;5.50;;;;;;;11.43;73.02;98020.09;4551418;25;21009;-79
2024/04/18 09:45:50;;;;;;;8.60;5.80;;;;;;;11.37;73.43;98016.16;4513507;26;20629;-79
2024/04/18 09:47:55;;;;;;;7.40;5.27;;;;;;;11.41;74.13;98028.03;4549557;25;21087;-79
2024/04/18 09:49:59;;;;;;;7.10;4.63;;;;;;;10.93;73.79;98020.28;4534076;26;20725;-79
2024/04/18 09:52:06;;;;;;;6.13;4.23;;;;;;;10.70;76.31;98027.22;4567902;25;20942;-80
2024/04/18 09:54:11;;;;;;;5.70;4.77;;;;;;;10.50;76.57;98035.59;4503831;26;20593;-79
2024/04/18 09:56:21;;;;;;;4.73;3.80;;;;;;;10.51;77.17;98039.88;4532665;26;20546;-79
2024/04/18 09:58:29;;;;;;;4.93;3.77;;;;;;;10.61;77.74;98043.50;4546401;26;20562;-79
2024/04/18 10:00:35;;;;;;;4.30;2.97;;;;;;;10.72;78.14;98054.88;4578544;25;21132;-79
2024/04/18 10:02:42;;;;;;;6.20;4.60;;;;;;;10.90;79.68;98057.03;4533669;26;20600;-79
2024/04/18 10:04:45;;;;;;;5.40;4.67;;;;;;;11.05;80.41;98062.94;4536272;26;20578;-79
2024/04/18 10:06:52;;;;;;;5.20;3.77;;;;;;;11.18;79.38;98051.50;4518222;26;21075;-80
2024/04/18 10:08:59;;;;;;;5.13;4.30;;;;;;;11.37;78.78;98062.31;4537881;26;21028;-79
2024/04/18 10:11:03;;;;;;;8.47;5.60;;;;;;;11.71;78.68;98067.63;4545810;26;20238;-80
2024/04/18 10:13:12;;;;;;;7.10;6.10;;;;;;;12.03;79.46;98072.16;4543873;26;21127;-80
2024/04/18 10:15:18;;;;;;;5.50;4.93;;;;;;;12.14;77.83;98077.41;4506627;26;20559;-79
2024/04/18 10:17:27;;;;;;;9.07;6.20;;;;;;;12.36;77.61;98073.06;4539772;26;21443;-79